sensor_id;sensor_type;location;lat;lon;timestamp;P1;durP1;ratioP1;P2;durP2;ratioP2
13855;SDS011;6998;53.608;9.958;2022-07-31T00:02:05;11.60;;;10.38;;
13855;SDS011;6998;53.608;9.958;2022-07-31T00:04:31;12.55;;;11.05;;
13855;SDS011;6998;53.608;9.958;2022-07-31T00:06:58;11.23;;;9.57;;
13855;SDS011;6998;53.608;9.958;2022-07-31T00:09:25;15.02;;;11.00;;
13855;SDS011;6998;53.608;9.958;2022-07-31T00:11:53;13.02;;;9.98;;
13855;SDS011;6998;53.608;9.958;2022-07-31T00:14:20;10.10;;;8.95;;
13855;SDS011;6998;53.608;9.958;2022-07-31T00:16:46;11.07;;;9.93;;
13855;SDS011;6998;53.608;9.958;2022-07-31T00:19:14;13.60;;;11.05;;
13855;SDS011;6998;53.608;9.958;2022-07-31T00:21:42;14.43;;;10.02;;
13855;SDS011;6998;53.608;9.958;2022-07-31T00:24:09;12.88;;;9.05;;
13855;SDS011;6998;53.608;9.958;2022-07-31T00:26:35;12.05;;;10.40;;
13855;SDS011;6998;53.608;9.958;2022-07-31T00:29:02;12.38;;;10.18;;
13855;SDS011;6998;53.608;9.958;2022-07-31T00:31:29;12.50;;;11.20;;
13855;SDS011;6998;53.608;9.958;2022-07-31T00:33:56;11.18;;;9.55;;
13855;SDS011;6998;53.608;9.958;2022-07-31T00:36:24;11.23;;;8.88;;
13855;SDS011;6998;53.608;9.958;2022-07-31T00:38:51;13.02;;;9.70;;
13855;SDS011;6998;53.608;9.958;2022-07-31T00:41:17;9.35;;;8.43;;
13855;SDS011;6998;53.608;9.958;2022-07-31T00:43:44;11.43;;;9.73;;
13855;SDS011;6998;53.608;9.958;2022-07-31T00:46:11;13.23;;;10.57;;
13855;SDS011;6998;53.608;9.958;2022-07-31T00:48:38;9.25;;;8.30;;
13855;SDS011;6998;53.608;9.958;2022-07-31T00:51:04;11.93;;;10.18;;
13855;SDS011;6998;53.608;9.958;2022-07-31T00:53:33;12.77;;;8.40;;
13855;SDS011;6998;53.608;9.958;2022-07-31T00:56:00;12.23;;;10.18;;
13855;SDS011;6998;53.608;9.958;2022-07-31T00:58:27;10.07;;;9.07;;
13855;SDS011;6998;53.608;9.958;2022-07-31T01:00:54;12.50;;;8.68;;
13855;SDS011;6998;53.608;9.958;2022-07-31T01:03:20;11.10;;;8.88;;
13855;SDS011;6998;53.608;9.958;2022-07-31T01:05:47;9.63;;;8.38;;
13855;SDS011;6998;53.608;9.958;2022-07-31T01:08:14;14.00;;;8.35;;
13855;SDS011;6998;53.608;9.958;2022-07-31T01:10:48;7.95;;;7.10;;
13855;SDS011;6998;53.608;9.958;2022-07-31T01:13:23;12.25;;;9.00;;
13855;SDS011;6998;53.608;9.958;2022-07-31T01:15:55;8.68;;;7.53;;
13855;SDS011;6998;53.608;9.958;2022-07-31T01:18:23;8.20;;;7.40;;
13855;SDS011;6998;53.608;9.958;2022-07-31T01:20:53;8.48;;;7.68;;
13855;SDS011;6998;53.608;9.958;2022-07-31T01:26:30;9.82;;;8.00;;
13855;SDS011;6998;53.608;9.958;2022-07-31T01:29:07;8.50;;;7.47;;
13855;SDS011;6998;53.608;9.958;2022-07-31T01:31:41;12.50;;;8.15;;
13855;SDS011;6998;53.608;9.958;2022-07-31T01:34:11;7.95;;;7.15;;
13855;SDS011;6998;53.608;9.958;2022-07-31T01:36:46;10.00;;;7.88;;
13855;SDS011;6998;53.608;9.958;2022-07-31T01:39:18;11.00;;;7.85;;
13855;SDS011;6998;53.608;9.958;2022-07-31T01:41:45;8.25;;;7.45;;
13855;SDS011;6998;53.608;9.958;2022-07-31T01:44:15;9.95;;;8.25;;
13855;SDS011;6998;53.608;9.958;2022-07-31T01:46:43;10.10;;;8.30;;
13855;SDS011;6998;53.608;9.958;2022-07-31T01:49:11;10.25;;;8.40;;
13855;SDS011;6998;53.608;9.958;2022-07-31T01:51:39;8.38;;;7.53;;
13855;SDS011;6998;53.608;9.958;2022-07-31T01:54:08;9.20;;;7.43;;
13855;SDS011;6998;53.608;9.958;2022-07-31T01:56:36;9.50;;;7.95;;
13855;SDS011;6998;53.608;9.958;2022-07-31T01:59:05;10.13;;;9.00;;
13855;SDS011;6998;53.608;9.958;2022-07-31T02:01:35;11.45;;;8.60;;
13855;SDS011;6998;53.608;9.958;2022-07-31T02:04:04;8.75;;;7.85;;
13855;SDS011;6998;53.608;9.958;2022-07-31T02:06:31;9.45;;;7.80;;
13855;SDS011;6998;53.608;9.958;2022-07-31T02:08:59;9.23;;;7.80;;
13855;SDS011;6998;53.608;9.958;2022-07-31T02:11:27;8.65;;;7.70;;
13855;SDS011;6998;53.608;9.958;2022-07-31T02:13:54;9.68;;;8.13;;
13855;SDS011;6998;53.608;9.958;2022-07-31T02:16:22;9.20;;;8.18;;
13855;SDS011;6998;53.608;9.958;2022-07-31T02:18:53;10.55;;;8.52;;
13855;SDS011;6998;53.608;9.958;2022-07-31T02:21:22;11.23;;;8.88;;
13855;SDS011;6998;53.608;9.958;2022-07-31T02:23:49;13.65;;;10.25;;
13855;SDS011;6998;53.608;9.958;2022-07-31T02:26:16;10.20;;;9.00;;
13855;SDS011;6998;53.608;9.958;2022-07-31T02:28:43;9.73;;;8.73;;
13855;SDS011;6998;53.608;9.958;2022-07-31T02:31:12;10.00;;;9.00;;
13855;SDS011;6998;53.608;9.958;2022-07-31T02:33:42;10.27;;;8.75;;
13855;SDS011;6998;53.608;9.958;2022-07-31T02:36:12;10.82;;;9.50;;
13855;SDS011;6998;53.608;9.958;2022-07-31T02:38:42;10.77;;;9.38;;
13855;SDS011;6998;53.608;9.958;2022-07-31T02:41:10;10.23;;;9.05;;
13855;SDS011;6998;53.608;9.958;2022-07-31T02:43:38;10.77;;;9.55;;
13855;SDS011;6998;53.608;9.958;2022-07-31T02:46:05;9.88;;;8.88;;
13855;SDS011;6998;53.608;9.958;2022-07-31T02:48:33;10.45;;;9.32;;
13855;SDS011;6998;53.608;9.958;2022-07-31T02:51:01;10.52;;;8.90;;
13855;SDS011;6998;53.608;9.958;2022-07-31T02:53:30;10.43;;;9.43;;
13855;SDS011;6998;53.608;9.958;2022-07-31T02:55:57;10.02;;;9.02;;
13855;SDS011;6998;53.608;9.958;2022-07-31T02:58:25;11.68;;;9.00;;
13855;SDS011;6998;53.608;9.958;2022-07-31T03:00:58;9.45;;;8.55;;
13855;SDS011;6998;53.608;9.958;2022-07-31T03:03:25;10.55;;;8.70;;
13855;SDS011;6998;53.608;9.958;2022-07-31T03:05:52;9.98;;;9.05;;
13855;SDS011;6998;53.608;9.958;2022-07-31T03:08:19;10.07;;;9.18;;
13855;SDS011;6998;53.608;9.958;2022-07-31T03:10:48;10.93;;;9.38;;
13855;SDS011;6998;53.608;9.958;2022-07-31T03:13:15;10.43;;;9.32;;
13855;SDS011;6998;53.608;9.958;2022-07-31T03:15:42;10.50;;;9.50;;
13855;SDS011;6998;53.608;9.958;2022-07-31T03:18:09;10.05;;;9.05;;
13855;SDS011;6998;53.608;9.958;2022-07-31T03:20:38;10.77;;;8.52;;
13855;SDS011;6998;53.608;9.958;2022-07-31T03:23:06;8.48;;;7.78;;
13855;SDS011;6998;53.608;9.958;2022-07-31T03:25:36;9.55;;;8.60;;
13855;SDS011;6998;53.608;9.958;2022-07-31T03:28:04;8.70;;;7.80;;
13855;SDS011;6998;53.608;9.958;2022-07-31T03:30:31;9.55;;;8.63;;
13855;SDS011;6998;53.608;9.958;2022-07-31T03:32:58;8.48;;;7.68;;
13855;SDS011;6998;53.608;9.958;2022-07-31T03:35:27;8.63;;;7.82;;
13855;SDS011;6998;53.608;9.958;2022-07-31T03:37:54;9.43;;;8.52;;
13855;SDS011;6998;53.608;9.958;2022-07-31T03:40:21;10.05;;;9.15;;
13855;SDS011;6998;53.608;9.958;2022-07-31T03:42:48;9.93;;;9.02;;
13855;SDS011;6998;53.608;9.958;2022-07-31T03:45:17;9.65;;;8.85;;
13855;SDS011;6998;53.608;9.958;2022-07-31T03:47:45;9.38;;;8.50;;
13855;SDS011;6998;53.608;9.958;2022-07-31T03:50:13;10.30;;;8.73;;
13855;SDS011;6998;53.608;9.958;2022-07-31T03:52:41;10.10;;;9.13;;
13855;SDS011;6998;53.608;9.958;2022-07-31T03:55:09;10.60;;;9.60;;
13855;SDS011;6998;53.608;9.958;2022-07-31T03:57:36;10.93;;;9.45;;
13855;SDS011;6998;53.608;9.958;2022-07-31T04:00:04;12.40;;;11.13;;
13855;SDS011;6998;53.608;9.958;2022-07-31T04:02:34;11.25;;;10.13;;
13855;SDS011;6998;53.608;9.958;2022-07-31T04:05:01;9.95;;;8.95;;
13855;SDS011;6998;53.608;9.958;2022-07-31T04:07:28;10.52;;;9.43;;
13855;SDS011;6998;53.608;9.958;2022-07-31T04:09:55;10.80;;;9.75;;
13855;SDS011;6998;53.608;9.958;2022-07-31T04:12:21;10.65;;;9.60;;
13855;SDS011;6998;53.608;9.958;2022-07-31T04:14:48;11.13;;;10.13;;
13855;SDS011;6998;53.608;9.958;2022-07-31T04:17:15;10.70;;;9.68;;
13855;SDS011;6998;53.608;9.958;2022-07-31T04:19:43;10.05;;;9.13;;
13855;SDS011;6998;53.608;9.958;2022-07-31T04:22:10;10.90;;;9.80;;
13855;SDS011;6998;53.608;9.958;2022-07-31T04:24:37;10.85;;;9.75;;
13855;SDS011;6998;53.608;9.958;2022-07-31T04:27:04;10.57;;;9.57;;
13855;SDS011;6998;53.608;9.958;2022-07-31T04:29:31;11.25;;;10.00;;
13855;SDS011;6998;53.608;9.958;2022-07-31T04:31:58;10.52;;;9.60;;
13855;SDS011;6998;53.608;9.958;2022-07-31T04:34:25;12.75;;;11.48;;
13855;SDS011;6998;53.608;9.958;2022-07-31T04:36:53;10.65;;;9.65;;
13855;SDS011;6998;53.608;9.958;2022-07-31T04:39:19;10.68;;;9.57;;
13855;SDS011;6998;53.608;9.958;2022-07-31T04:41:46;10.77;;;9.70;;
13855;SDS011;6998;53.608;9.958;2022-07-31T04:44:13;11.23;;;10.10;;
13855;SDS011;6998;53.608;9.958;2022-07-31T04:46:40;11.57;;;10.48;;
13855;SDS011;6998;53.608;9.958;2022-07-31T04:49:07;9.88;;;8.98;;
13855;SDS011;6998;53.608;9.958;2022-07-31T04:51:37;10.77;;;9.60;;
13855;SDS011;6998;53.608;9.958;2022-07-31T04:54:05;10.02;;;9.13;;
13855;SDS011;6998;53.608;9.958;2022-07-31T04:56:32;11.27;;;10.07;;
13855;SDS011;6998;53.608;9.958;2022-07-31T04:59:00;12.20;;;10.60;;
13855;SDS011;6998;53.608;9.958;2022-07-31T05:01:29;9.00;;;8.30;;
13855;SDS011;6998;53.608;9.958;2022-07-31T05:03:55;9.35;;;8.55;;
13855;SDS011;6998;53.608;9.958;2022-07-31T05:06:30;10.82;;;9.82;;
13855;SDS011;6998;53.608;9.958;2022-07-31T05:08:58;11.20;;;9.75;;
13855;SDS011;6998;53.608;9.958;2022-07-31T05:11:26;10.18;;;9.25;;
13855;SDS011;6998;53.608;9.958;2022-07-31T05:13:55;7.97;;;7.18;;
13855;SDS011;6998;53.608;9.958;2022-07-31T05:16:23;9.80;;;8.80;;
13855;SDS011;6998;53.608;9.958;2022-07-31T05:18:50;13.38;;;11.07;;
13855;SDS011;6998;53.608;9.958;2022-07-31T05:21:17;10.68;;;9.57;;
13855;SDS011;6998;53.608;9.958;2022-07-31T05:23:46;9.95;;;8.95;;
13855;SDS011;6998;53.608;9.958;2022-07-31T05:26:14;10.43;;;9.43;;
13855;SDS011;6998;53.608;9.958;2022-07-31T05:28:43;11.13;;;9.85;;
13855;SDS011;6998;53.608;9.958;2022-07-31T05:31:10;10.90;;;9.80;;
13855;SDS011;6998;53.608;9.958;2022-07-31T05:33:37;11.05;;;10.00;;
13855;SDS011;6998;53.608;9.958;2022-07-31T05:36:04;9.75;;;8.85;;
13855;SDS011;6998;53.608;9.958;2022-07-31T05:38:32;9.40;;;8.27;;
13855;SDS011;6998;53.608;9.958;2022-07-31T05:40:58;8.80;;;8.00;;
13855;SDS011;6998;53.608;9.958;2022-07-31T05:43:25;12.88;;;11.68;;
13855;SDS011;6998;53.608;9.958;2022-07-31T05:45:54;16.95;;;15.05;;
13855;SDS011;6998;53.608;9.958;2022-07-31T05:48:21;15.32;;;13.70;;
13855;SDS011;6998;53.608;9.958;2022-07-31T05:50:49;14.38;;;13.07;;
13855;SDS011;6998;53.608;9.958;2022-07-31T05:53:16;17.02;;;13.35;;
13855;SDS011;6998;53.608;9.958;2022-07-31T05:55:44;17.25;;;15.45;;
13855;SDS011;6998;53.608;9.958;2022-07-31T05:58:12;17.00;;;13.85;;
13855;SDS011;6998;53.608;9.958;2022-07-31T06:00:40;13.02;;;11.77;;
13855;SDS011;6998;53.608;9.958;2022-07-31T06:03:09;13.98;;;11.57;;
13855;SDS011;6998;53.608;9.958;2022-07-31T06:05:37;11.85;;;10.73;;
13855;SDS011;6998;53.608;9.958;2022-07-31T06:08:04;10.05;;;8.90;;
13855;SDS011;6998;53.608;9.958;2022-07-31T06:10:31;14.48;;;11.25;;
13855;SDS011;6998;53.608;9.958;2022-07-31T06:12:58;9.05;;;8.10;;
13855;SDS011;6998;53.608;9.958;2022-07-31T06:15:25;9.30;;;6.85;;
13855;SDS011;6998;53.608;9.958;2022-07-31T06:17:52;9.35;;;8.40;;
13855;SDS011;6998;53.608;9.958;2022-07-31T06:20:20;13.23;;;9.57;;
13855;SDS011;6998;53.608;9.958;2022-07-31T06:22:47;10.52;;;9.18;;
13855;SDS011;6998;53.608;9.958;2022-07-31T06:25:13;9.25;;;8.32;;
13855;SDS011;6998;53.608;9.958;2022-07-31T06:27:40;11.90;;;10.30;;
13855;SDS011;6998;53.608;9.958;2022-07-31T06:30:08;9.65;;;8.20;;
13855;SDS011;6998;53.608;9.958;2022-07-31T06:32:35;7.80;;;7.10;;
13855;SDS011;6998;53.608;9.958;2022-07-31T06:35:03;12.05;;;8.02;;
13855;SDS011;6998;53.608;9.958;2022-07-31T06:37:32;7.00;;;5.97;;
13855;SDS011;6998;53.608;9.958;2022-07-31T06:39:58;8.27;;;7.45;;
13855;SDS011;6998;53.608;9.958;2022-07-31T06:42:25;11.80;;;7.05;;
13855;SDS011;6998;53.608;9.958;2022-07-31T06:44:53;7.03;;;5.78;;
13855;SDS011;6998;53.608;9.958;2022-07-31T06:47:20;5.82;;;5.13;;
13855;SDS011;6998;53.608;9.958;2022-07-31T06:49:48;10.30;;;5.28;;
13855;SDS011;6998;53.608;9.958;2022-07-31T06:52:15;6.30;;;4.63;;
13855;SDS011;6998;53.608;9.958;2022-07-31T06:54:43;7.60;;;4.97;;
13855;SDS011;6998;53.608;9.958;2022-07-31T06:57:11;5.00;;;4.32;;
13855;SDS011;6998;53.608;9.958;2022-07-31T06:59:38;5.75;;;5.15;;
13855;SDS011;6998;53.608;9.958;2022-07-31T07:02:05;5.90;;;4.45;;
13855;SDS011;6998;53.608;9.958;2022-07-31T07:04:32;6.43;;;4.65;;
13855;SDS011;6998;53.608;9.958;2022-07-31T07:06:58;5.90;;;5.40;;
13855;SDS011;6998;53.608;9.958;2022-07-31T07:09:25;5.28;;;4.78;;
13855;SDS011;6998;53.608;9.958;2022-07-31T07:11:53;6.05;;;5.45;;
13855;SDS011;6998;53.608;9.958;2022-07-31T07:14:20;6.88;;;5.20;;
13855;SDS011;6998;53.608;9.958;2022-07-31T07:16:47;9.60;;;4.80;;
13855;SDS011;6998;53.608;9.958;2022-07-31T07:19:13;5.18;;;3.70;;
13855;SDS011;6998;53.608;9.958;2022-07-31T07:21:40;5.40;;;3.88;;
13855;SDS011;6998;53.608;9.958;2022-07-31T07:24:07;5.88;;;3.92;;
13855;SDS011;6998;53.608;9.958;2022-07-31T07:26:34;9.20;;;4.50;;
13855;SDS011;6998;53.608;9.958;2022-07-31T07:29:02;7.90;;;4.47;;
13855;SDS011;6998;53.608;9.958;2022-07-31T07:31:29;4.97;;;3.28;;
13855;SDS011;6998;53.608;9.958;2022-07-31T07:33:55;6.50;;;4.40;;
13855;SDS011;6998;53.608;9.958;2022-07-31T07:36:22;4.90;;;3.80;;
13855;SDS011;6998;53.608;9.958;2022-07-31T07:38:50;5.57;;;3.95;;
13855;SDS011;6998;53.608;9.958;2022-07-31T07:41:18;5.43;;;3.95;;
13855;SDS011;6998;53.608;9.958;2022-07-31T07:43:45;4.82;;;3.10;;
13855;SDS011;6998;53.608;9.958;2022-07-31T07:46:14;6.65;;;2.90;;
13855;SDS011;6998;53.608;9.958;2022-07-31T07:48:40;3.80;;;2.78;;
13855;SDS011;6998;53.608;9.958;2022-07-31T07:51:07;3.83;;;2.50;;
13855;SDS011;6998;53.608;9.958;2022-07-31T07:53:34;5.43;;;2.67;;
13855;SDS011;6998;53.608;9.958;2022-07-31T07:56:00;2.65;;;1.88;;
13855;SDS011;6998;53.608;9.958;2022-07-31T07:58:28;3.22;;;1.95;;
13855;SDS011;6998;53.608;9.958;2022-07-31T08:00:54;3.83;;;2.75;;
13855;SDS011;6998;53.608;9.958;2022-07-31T08:03:22;4.65;;;2.58;;
13855;SDS011;6998;53.608;9.958;2022-07-31T08:05:49;5.10;;;2.38;;
13855;SDS011;6998;53.608;9.958;2022-07-31T08:08:16;4.40;;;3.00;;
13855;SDS011;6998;53.608;9.958;2022-07-31T08:10:43;3.83;;;3.10;;
13855;SDS011;6998;53.608;9.958;2022-07-31T08:13:09;3.83;;;2.33;;
13855;SDS011;6998;53.608;9.958;2022-07-31T08:15:36;4.28;;;3.70;;
13855;SDS011;6998;53.608;9.958;2022-07-31T08:18:03;4.95;;;3.08;;
13855;SDS011;6998;53.608;9.958;2022-07-31T08:20:31;5.82;;;3.05;;
13855;SDS011;6998;53.608;9.958;2022-07-31T08:22:58;6.88;;;3.83;;
13855;SDS011;6998;53.608;9.958;2022-07-31T08:25:25;5.13;;;3.58;;
13855;SDS011;6998;53.608;9.958;2022-07-31T08:27:51;4.97;;;3.38;;
13855;SDS011;6998;53.608;9.958;2022-07-31T08:30:18;4.90;;;3.40;;
13855;SDS011;6998;53.608;9.958;2022-07-31T08:32:45;4.03;;;2.72;;
13855;SDS011;6998;53.608;9.958;2022-07-31T08:35:12;2.92;;;2.42;;
13855;SDS011;6998;53.608;9.958;2022-07-31T08:37:40;4.13;;;2.80;;
13855;SDS011;6998;53.608;9.958;2022-07-31T08:40:08;4.38;;;2.42;;
13855;SDS011;6998;53.608;9.958;2022-07-31T08:42:35;4.60;;;2.25;;
13855;SDS011;6998;53.608;9.958;2022-07-31T08:45:04;6.78;;;2.30;;
13855;SDS011;6998;53.608;9.958;2022-07-31T08:47:32;4.43;;;2.10;;
13855;SDS011;6998;53.608;9.958;2022-07-31T08:50:00;5.50;;;2.00;;
13855;SDS011;6998;53.608;9.958;2022-07-31T08:52:29;2.65;;;2.00;;
13855;SDS011;6998;53.608;9.958;2022-07-31T08:55:00;2.95;;;2.10;;
13855;SDS011;6998;53.608;9.958;2022-07-31T08:57:32;2.75;;;2.30;;
13855;SDS011;6998;53.608;9.958;2022-07-31T09:00:00;3.78;;;2.20;;
13855;SDS011;6998;53.608;9.958;2022-07-31T09:02:27;4.90;;;2.47;;
13855;SDS011;6998;53.608;9.958;2022-07-31T09:04:53;3.63;;;1.92;;
13855;SDS011;6998;53.608;9.958;2022-07-31T09:07:21;3.47;;;1.95;;
13855;SDS011;6998;53.608;9.958;2022-07-31T09:09:47;3.10;;;2.05;;
13855;SDS011;6998;53.608;9.958;2022-07-31T09:12:24;4.60;;;2.40;;
13855;SDS011;6998;53.608;9.958;2022-07-31T09:14:52;5.10;;;2.50;;
13855;SDS011;6998;53.608;9.958;2022-07-31T09:17:28;5.25;;;2.15;;
13855;SDS011;6998;53.608;9.958;2022-07-31T09:19:56;3.88;;;2.15;;
13855;SDS011;6998;53.608;9.958;2022-07-31T09:22:24;3.20;;;2.10;;
13855;SDS011;6998;53.608;9.958;2022-07-31T09:24:52;4.97;;;2.40;;
13855;SDS011;6998;53.608;9.958;2022-07-31T09:27:26;3.50;;;2.20;;
13855;SDS011;6998;53.608;9.958;2022-07-31T09:29:54;2.45;;;1.80;;
13855;SDS011;6998;53.608;9.958;2022-07-31T09:32:22;4.07;;;2.05;;
13855;SDS011;6998;53.608;9.958;2022-07-31T09:34:48;3.17;;;2.17;;
13855;SDS011;6998;53.608;9.958;2022-07-31T09:37:16;4.40;;;2.00;;
13855;SDS011;6998;53.608;9.958;2022-07-31T09:39:47;3.35;;;2.13;;
13855;SDS011;6998;53.608;9.958;2022-07-31T09:42:16;3.38;;;1.80;;
13855;SDS011;6998;53.608;9.958;2022-07-31T09:44:44;3.83;;;2.00;;
13855;SDS011;6998;53.608;9.958;2022-07-31T09:47:19;3.38;;;1.85;;
13855;SDS011;6998;53.608;9.958;2022-07-31T09:49:51;3.55;;;2.20;;
13855;SDS011;6998;53.608;9.958;2022-07-31T09:52:19;4.40;;;2.00;;
13855;SDS011;6998;53.608;9.958;2022-07-31T09:54:46;3.95;;;2.03;;
13855;SDS011;6998;53.608;9.958;2022-07-31T09:57:14;4.60;;;2.15;;
13855;SDS011;6998;53.608;9.958;2022-07-31T09:59:41;5.72;;;2.03;;
13855;SDS011;6998;53.608;9.958;2022-07-31T10:02:12;3.50;;;2.28;;
13855;SDS011;6998;53.608;9.958;2022-07-31T10:04:40;5.72;;;2.00;;
13855;SDS011;6998;53.608;9.958;2022-07-31T10:07:08;3.08;;;2.00;;
13855;SDS011;6998;53.608;9.958;2022-07-31T10:09:37;3.40;;;2.10;;
13855;SDS011;6998;53.608;9.958;2022-07-31T10:12:06;3.22;;;2.13;;
13855;SDS011;6998;53.608;9.958;2022-07-31T10:14:38;2.63;;;1.92;;
13855;SDS011;6998;53.608;9.958;2022-07-31T10:17:10;3.38;;;2.20;;
13855;SDS011;6998;53.608;9.958;2022-07-31T10:19:39;4.55;;;2.30;;
13855;SDS011;6998;53.608;9.958;2022-07-31T10:22:10;3.38;;;2.08;;
13855;SDS011;6998;53.608;9.958;2022-07-31T10:24:39;3.22;;;1.85;;
13855;SDS011;6998;53.608;9.958;2022-07-31T10:27:12;2.33;;;1.80;;
13855;SDS011;6998;53.608;9.958;2022-07-31T10:29:40;2.80;;;1.85;;
13855;SDS011;6998;53.608;9.958;2022-07-31T10:32:07;3.92;;;2.22;;
13855;SDS011;6998;53.608;9.958;2022-07-31T10:34:35;4.25;;;2.10;;
13855;SDS011;6998;53.608;9.958;2022-07-31T10:37:06;6.53;;;2.08;;
13855;SDS011;6998;53.608;9.958;2022-07-31T10:39:37;2.13;;;1.83;;
13855;SDS011;6998;53.608;9.958;2022-07-31T10:42:11;3.65;;;1.50;;
13855;SDS011;6998;53.608;9.958;2022-07-31T10:44:45;3.38;;;1.92;;
13855;SDS011;6998;53.608;9.958;2022-07-31T10:47:18;4.90;;;1.65;;
13855;SDS011;6998;53.608;9.958;2022-07-31T10:49:47;3.33;;;2.05;;
13855;SDS011;6998;53.608;9.958;2022-07-31T10:52:24;3.03;;;1.98;;
13855;SDS011;6998;53.608;9.958;2022-07-31T10:54:52;2.88;;;1.90;;
13855;SDS011;6998;53.608;9.958;2022-07-31T10:57:22;3.15;;;1.90;;
13855;SDS011;6998;53.608;9.958;2022-07-31T10:59:49;2.70;;;1.70;;
13855;SDS011;6998;53.608;9.958;2022-07-31T11:02:25;3.10;;;1.80;;
13855;SDS011;6998;53.608;9.958;2022-07-31T11:05:04;2.95;;;1.88;;
13855;SDS011;6998;53.608;9.958;2022-07-31T11:07:35;3.47;;;1.67;;
13855;SDS011;6998;53.608;9.958;2022-07-31T11:10:12;2.08;;;1.73;;
13855;SDS011;6998;53.608;9.958;2022-07-31T11:12:41;4.82;;;1.98;;
13855;SDS011;6998;53.608;9.958;2022-07-31T11:15:18;4.38;;;1.80;;
13855;SDS011;6998;53.608;9.958;2022-07-31T11:17:45;3.40;;;2.10;;
13855;SDS011;6998;53.608;9.958;2022-07-31T11:20:24;3.28;;;2.00;;
13855;SDS011;6998;53.608;9.958;2022-07-31T11:22:53;2.38;;;1.65;;
13855;SDS011;6998;53.608;9.958;2022-07-31T11:25:21;2.80;;;1.67;;
13855;SDS011;6998;53.608;9.958;2022-07-31T11:27:48;3.00;;;1.70;;
13855;SDS011;6998;53.608;9.958;2022-07-31T11:30:15;4.53;;;1.95;;
13855;SDS011;6998;53.608;9.958;2022-07-31T11:32:46;2.30;;;1.85;;
13855;SDS011;6998;53.608;9.958;2022-07-31T11:35:24;3.00;;;1.83;;
13855;SDS011;6998;53.608;9.958;2022-07-31T11:37:54;3.92;;;2.25;;
13855;SDS011;6998;53.608;9.958;2022-07-31T11:40:22;2.50;;;1.60;;
13855;SDS011;6998;53.608;9.958;2022-07-31T11:42:49;3.42;;;2.20;;
13855;SDS011;6998;53.608;9.958;2022-07-31T11:45:16;3.25;;;2.10;;
13855;SDS011;6998;53.608;9.958;2022-07-31T11:47:43;3.13;;;2.10;;
13855;SDS011;6998;53.608;9.958;2022-07-31T11:50:11;3.20;;;1.90;;
13855;SDS011;6998;53.608;9.958;2022-07-31T11:52:41;3.40;;;2.10;;
13855;SDS011;6998;53.608;9.958;2022-07-31T11:55:09;2.63;;;1.70;;
13855;SDS011;6998;53.608;9.958;2022-07-31T11:57:37;2.92;;;2.10;;
13855;SDS011;6998;53.608;9.958;2022-07-31T12:00:05;3.75;;;2.00;;
13855;SDS011;6998;53.608;9.958;2022-07-31T12:02:34;3.25;;;1.95;;
13855;SDS011;6998;53.608;9.958;2022-07-31T12:05:04;3.38;;;2.05;;
13855;SDS011;6998;53.608;9.958;2022-07-31T12:07:31;2.33;;;1.92;;
13855;SDS011;6998;53.608;9.958;2022-07-31T12:10:01;3.75;;;1.90;;
13855;SDS011;6998;53.608;9.958;2022-07-31T12:12:29;3.00;;;2.00;;
13855;SDS011;6998;53.608;9.958;2022-07-31T12:14:56;2.60;;;1.90;;
13855;SDS011;6998;53.608;9.958;2022-07-31T12:17:22;2.72;;;2.03;;
13855;SDS011;6998;53.608;9.958;2022-07-31T12:19:49;3.90;;;1.73;;
13855;SDS011;6998;53.608;9.958;2022-07-31T12:22:17;4.35;;;2.05;;
13855;SDS011;6998;53.608;9.958;2022-07-31T12:24:45;4.03;;;1.88;;
13855;SDS011;6998;53.608;9.958;2022-07-31T12:27:24;4.20;;;2.00;;
13855;SDS011;6998;53.608;9.958;2022-07-31T12:29:52;3.17;;;2.00;;
13855;SDS011;6998;53.608;9.958;2022-07-31T12:32:22;1.80;;;1.65;;
13855;SDS011;6998;53.608;9.958;2022-07-31T12:34:59;2.38;;;1.80;;
13855;SDS011;6998;53.608;9.958;2022-07-31T12:37:27;1.67;;;1.48;;
13855;SDS011;6998;53.608;9.958;2022-07-31T12:39:54;3.70;;;1.92;;
13855;SDS011;6998;53.608;9.958;2022-07-31T12:42:22;4.45;;;2.00;;
13855;SDS011;6998;53.608;9.958;2022-07-31T12:44:51;2.17;;;1.70;;
13855;SDS011;6998;53.608;9.958;2022-07-31T12:47:20;2.35;;;2.00;;
13855;SDS011;6998;53.608;9.958;2022-07-31T12:49:47;2.95;;;1.88;;
13855;SDS011;6998;53.608;9.958;2022-07-31T12:52:14;3.75;;;1.88;;
13855;SDS011;6998;53.608;9.958;2022-07-31T12:54:41;2.47;;;1.90;;
13855;SDS011;6998;53.608;9.958;2022-07-31T12:57:08;2.35;;;1.63;;
13855;SDS011;6998;53.608;9.958;2022-07-31T12:59:35;2.33;;;1.90;;
13855;SDS011;6998;53.608;9.958;2022-07-31T13:02:03;3.83;;;1.90;;
13855;SDS011;6998;53.608;9.958;2022-07-31T13:04:30;2.95;;;2.08;;
13855;SDS011;6998;53.608;9.958;2022-07-31T13:06:57;3.15;;;1.80;;
13855;SDS011;6998;53.608;9.958;2022-07-31T13:09:24;1.92;;;1.70;;
13855;SDS011;6998;53.608;9.958;2022-07-31T13:11:51;2.72;;;1.80;;
13855;SDS011;6998;53.608;9.958;2022-07-31T13:14:18;4.43;;;2.17;;
13855;SDS011;6998;53.608;9.958;2022-07-31T13:16:48;2.42;;;1.77;;
13855;SDS011;6998;53.608;9.958;2022-07-31T13:19:17;3.17;;;1.77;;
13855;SDS011;6998;53.608;9.958;2022-07-31T13:21:44;4.07;;;1.80;;
13855;SDS011;6998;53.608;9.958;2022-07-31T13:24:11;3.08;;;1.98;;
13855;SDS011;6998;53.608;9.958;2022-07-31T13:26:38;4.28;;;2.00;;
13855;SDS011;6998;53.608;9.958;2022-07-31T13:29:05;4.63;;;2.08;;
13855;SDS011;6998;53.608;9.958;2022-07-31T13:31:32;2.97;;;2.22;;
13855;SDS011;6998;53.608;9.958;2022-07-31T13:33:59;2.75;;;1.85;;
13855;SDS011;6998;53.608;9.958;2022-07-31T13:36:27;2.20;;;2.00;;
13855;SDS011;6998;53.608;9.958;2022-07-31T13:38:54;2.75;;;2.05;;
13855;SDS011;6998;53.608;9.958;2022-07-31T13:41:21;3.42;;;2.00;;
13855;SDS011;6998;53.608;9.958;2022-07-31T13:43:54;2.75;;;2.30;;
13855;SDS011;6998;53.608;9.958;2022-07-31T13:46:23;2.67;;;2.00;;
13855;SDS011;6998;53.608;9.958;2022-07-31T13:48:51;4.88;;;2.08;;
13855;SDS011;6998;53.608;9.958;2022-07-31T13:51:19;3.58;;;2.30;;
13855;SDS011;6998;53.608;9.958;2022-07-31T13:53:47;4.93;;;2.28;;
13855;SDS011;6998;53.608;9.958;2022-07-31T13:56:15;3.05;;;2.17;;
13855;SDS011;6998;53.608;9.958;2022-07-31T13:58:41;3.25;;;2.05;;
13855;SDS011;6998;53.608;9.958;2022-07-31T14:01:08;3.03;;;2.03;;
13855;SDS011;6998;53.608;9.958;2022-07-31T14:03:35;4.90;;;2.08;;
13855;SDS011;6998;53.608;9.958;2022-07-31T14:06:02;4.40;;;1.85;;
13855;SDS011;6998;53.608;9.958;2022-07-31T14:08:29;2.55;;;1.95;;
13855;SDS011;6998;53.608;9.958;2022-07-31T14:10:57;4.90;;;2.45;;
13855;SDS011;6998;53.608;9.958;2022-07-31T14:13:24;2.20;;;2.00;;
13855;SDS011;6998;53.608;9.958;2022-07-31T14:15:50;3.25;;;2.22;;
13855;SDS011;6998;53.608;9.958;2022-07-31T14:18:17;4.13;;;2.08;;
13855;SDS011;6998;53.608;9.958;2022-07-31T14:20:44;2.53;;;2.25;;
13855;SDS011;6998;53.608;9.958;2022-07-31T14:23:11;4.80;;;2.13;;
13855;SDS011;6998;53.608;9.958;2022-07-31T14:25:38;2.90;;;2.13;;
13855;SDS011;6998;53.608;9.958;2022-07-31T14:28:07;3.33;;;2.40;;
13855;SDS011;6998;53.608;9.958;2022-07-31T14:30:35;2.55;;;2.15;;
13855;SDS011;6998;53.608;9.958;2022-07-31T14:33:02;2.80;;;2.15;;
13855;SDS011;6998;53.608;9.958;2022-07-31T14:35:29;3.65;;;2.63;;
13855;SDS011;6998;53.608;9.958;2022-07-31T14:37:57;4.03;;;2.63;;
13855;SDS011;6998;53.608;9.958;2022-07-31T14:40:24;3.92;;;2.20;;
13855;SDS011;6998;53.608;9.958;2022-07-31T14:42:51;3.75;;;2.30;;
13855;SDS011;6998;53.608;9.958;2022-07-31T14:45:19;6.45;;;2.80;;
13855;SDS011;6998;53.608;9.958;2022-07-31T14:47:46;3.30;;;2.40;;
13855;SDS011;6998;53.608;9.958;2022-07-31T14:50:14;4.47;;;2.60;;
13855;SDS011;6998;53.608;9.958;2022-07-31T14:52:41;5.07;;;2.80;;
13855;SDS011;6998;53.608;9.958;2022-07-31T14:55:08;5.13;;;2.92;;
13855;SDS011;6998;53.608;9.958;2022-07-31T14:57:35;4.15;;;2.72;;
13855;SDS011;6998;53.608;9.958;2022-07-31T15:00:02;3.67;;;2.53;;
13855;SDS011;6998;53.608;9.958;2022-07-31T15:02:37;3.10;;;2.47;;
13855;SDS011;6998;53.608;9.958;2022-07-31T15:05:04;3.08;;;2.53;;